Time;durP1;ratioP1;P1;durP2;ratioP2;P2;SDS_P1;SDS_P2;PMS_P1;PMS_P2;Temp;Humidity;BMP_temperature;BMP_pressure;BME280_temperature;BME280_humidity;BME280_pressure;Samples;Min_cycle;Max_cycle;Signal;HPM_P1;HPM_P2
2023/06/07 00:01:36;;;;;;;7.83;2.97;;;15.20;60.40;;;;;;4985759;28;20043;-72
2023/06/07 00:04:03;;;;;;;9.82;2.97;;;15.20;60.30;;;;;;4970197;28;20271;-72
2023/06/07 00:06:32;;;;;;;7.00;2.80;;;15.20;60.50;;;;;;4986499;28;20058;-72
2023/06/07 00:08:59;;;;;;;7.95;3.22;;;15.20;60.50;;;;;;4987781;28;20050;-72
2023/06/07 00:11:26;;;;;;;9.88;2.88;;;15.10;60.50;;;;;;4985821;28;20047;-73
2023/06/07 00:13:53;;;;;;;9.07;3.33;;;15.00;60.50;;;;;;4986007;28;20058;-72
2023/06/07 00:16:22;;;;;;;7.65;3.00;;;15.00;60.50;;;;;;4951364;28;1071445;-73
2023/06/07 00:18:49;;;;;;;7.90;3.03;;;15.00;60.50;;;;;;4989103;28;20058;-72
2023/06/07 00:21:19;;;;;;;8.80;3.10;;;15.00;60.50;;;;;;4987232;28;20322;-72
2023/06/07 00:23:46;;;;;;;8.18;3.20;;;15.00;60.50;;;;;;4988805;28;20059;-73
2023/06/07 00:26:13;;;;;;;7.30;2.83;;;14.90;60.60;;;;;;4986814;28;20055;-72
2023/06/07 00:28:41;;;;;;;9.02;3.25;;;14.90;60.70;;;;;;4988412;28;20286;-72
2023/06/07 00:31:08;;;;;;;7.88;3.10;;;14.90;60.80;;;;;;4969792;28;20126;-73
2023/06/07 00:33:37;;;;;;;7.00;3.20;;;14.90;60.80;;;;;;4966692;28;20055;-72
2023/06/07 00:36:06;;;;;;;8.95;3.22;;;14.80;61.00;;;;;;4988324;28;20590;-72
2023/06/07 00:38:33;;;;;;;9.17;3.30;;;14.80;61.00;;;;;;4987135;28;20058;-73
2023/06/07 00:41:01;;;;;;;8.80;3.30;;;14.80;61.00;;;;;;4986097;28;20270;-72
2023/06/07 00:43:28;;;;;;;8.18;3.65;;;14.70;61.00;;;;;;4970652;28;20046;-72
2023/06/07 00:45:55;;;;;;;9.13;3.40;;;14.70;61.10;;;;;;4988205;28;20058;-72
2023/06/07 00:48:22;;;;;;;8.30;3.17;;;14.70;61.20;;;;;;4987233;28;20134;-73
2023/06/07 00:50:51;;;;;;;10.20;3.43;;;14.60;61.30;;;;;;5001155;28;20696;-72
2023/06/07 00:53:18;;;;;;;9.98;4.38;;;14.50;61.40;;;;;;4987615;28;20562;-72
2023/06/07 00:55:46;;;;;;;8.68;3.72;;;14.50;61.40;;;;;;4994423;28;20660;-72
2023/06/07 00:58:15;;;;;;;6.22;3.08;;;14.50;61.40;;;;;;4970431;28;20525;-72
2023/06/07 01:00:43;;;;;;;9.15;3.17;;;14.50;61.50;;;;;;4970404;28;20049;-72
2023/06/07 01:03:11;;;;;;;8.83;3.37;;;14.40;61.50;;;;;;4987903;28;20126;-73
2023/06/07 01:05:38;;;;;;;7.93;3.13;;;14.40;61.60;;;;;;4986796;28;20733;-72
2023/06/07 01:08:07;;;;;;;8.52;3.60;;;14.40;61.50;;;;;;4986593;28;20105;-72
2023/06/07 01:10:37;;;;;;;7.45;3.42;;;14.30;61.50;;;;;;4969812;28;20043;-72
2023/06/07 01:13:05;;;;;;;9.65;3.40;;;14.30;61.60;;;;;;4984757;28;20043;-72
2023/06/07 01:15:33;;;;;;;10.00;3.43;;;14.30;61.70;;;;;;4986011;28;20058;-72
2023/06/07 01:18:01;;;;;;;7.65;3.40;;;14.30;61.80;;;;;;4978103;28;20342;-72
2023/06/07 01:20:29;;;;;;;8.57;3.70;;;14.20;61.80;;;;;;4986405;28;20552;-72
2023/06/07 01:23:02;;;;;;;9.65;3.70;;;14.20;61.90;;;;;;4987405;28;20134;-72
2023/06/07 01:25:30;;;;;;;9.60;3.45;;;14.20;62.10;;;;;;4986543;28;20085;-72
2023/06/07 01:28:01;;;;;;;7.23;3.33;;;14.20;62.20;;;;;;4970363;28;20055;-72
2023/06/07 01:30:31;;;;;;;7.57;3.83;;;14.10;62.30;;;;;;4977742;28;20316;-72
2023/06/07 01:33:01;;;;;;;11.65;4.15;;;14.10;62.30;;;;;;4986157;28;20098;-72
2023/06/07 01:35:29;;;;;;;10.40;3.60;;;14.10;62.30;;;;;;4986241;28;20054;-73
2023/06/07 01:37:57;;;;;;;9.30;3.47;;;14.00;62.40;;;;;;4986435;28;20061;-72
2023/06/07 01:40:25;;;;;;;9.23;3.70;;;14.00;62.60;;;;;;4985939;28;20550;-72
2023/06/07 01:42:57;;;;;;;9.82;3.50;;;14.00;62.70;;;;;;4988023;28;20275;-72
2023/06/07 01:45:25;;;;;;;8.38;3.65;;;14.00;63.10;;;;;;4970079;28;20564;-72
2023/06/07 01:47:52;;;;;;;8.63;3.78;;;14.00;63.00;;;;;;4987487;28;20174;-72
2023/06/07 01:50:22;;;;;;;9.68;3.47;;;13.90;63.30;;;;;;4985994;28;20145;-72
2023/06/07 01:52:49;;;;;;;8.87;3.50;;;13.90;63.50;;;;;;4986038;28;20081;-72
2023/06/07 01:55:17;;;;;;;10.10;4.03;;;13.90;63.60;;;;;;4970168;28;20732;-72
2023/06/07 01:57:53;;;;;;;10.95;4.10;;;13.90;63.60;;;;;;4969954;28;20059;-72
2023/06/07 02:00:27;;;;;;;9.82;3.80;;;13.90;63.90;;;;;;4969404;28;20066;-72
2023/06/07 02:02:58;;;;;;;9.55;3.78;;;13.90;63.70;;;;;;4985831;28;20145;-72
2023/06/07 02:05:29;;;;;;;10.00;4.20;;;13.80;64.00;;;;;;4970359;28;20055;-72
2023/06/07 02:07:59;;;;;;;10.40;3.80;;;13.80;64.10;;;;;;4991314;28;20254;-72
2023/06/07 02:10:28;;;;;;;12.20;4.13;;;13.80;64.00;;;;;;4972624;28;20047;-72
2023/06/07 02:12:56;;;;;;;11.43;3.72;;;13.70;64.20;;;;;;4989120;28;20126;-72
2023/06/07 02:15:24;;;;;;;9.30;3.65;;;13.70;64.40;;;;;;4990147;28;20505;-72
2023/06/07 02:17:57;;;;;;;10.87;3.97;;;13.70;64.50;;;;;;4989506;28;20066;-72
2023/06/07 02:20:25;;;;;;;10.63;4.10;;;13.70;64.80;;;;;;4989101;28;20750;-72
2023/06/07 02:22:55;;;;;;;10.80;3.95;;;13.60;64.70;;;;;;4990497;28;20055;-72
2023/06/07 02:25:23;;;;;;;11.68;3.80;;;13.60;65.00;;;;;;4972513;28;20454;-72
2023/06/07 02:27:51;;;;;;;10.57;3.85;;;13.60;65.20;;;;;;4989094;28;20084;-72
2023/06/07 02:30:18;;;;;;;11.30;4.00;;;13.60;65.10;;;;;;4972629;28;20129;-73
2023/06/07 02:32:48;;;;;;;10.65;4.13;;;13.60;65.10;;;;;;4972790;28;20652;-72
2023/06/07 02:35:17;;;;;;;24.27;5.32;;;13.60;65.50;;;;;;4990901;28;20110;-72
2023/06/07 02:37:44;;;;;;;18.10;4.90;;;13.60;65.70;;;;;;4990413;28;20085;-73
2023/06/07 02:40:12;;;;;;;14.00;4.70;;;13.50;65.80;;;;;;4972507;28;20051;-72
2023/06/07 02:42:39;;;;;;;10.90;4.30;;;13.50;65.30;;;;;;4972430;28;20138;-72
2023/06/07 02:45:07;;;;;;;12.45;4.50;;;13.50;65.50;;;;;;4988711;28;20255;-72
2023/06/07 02:47:36;;;;;;;15.60;4.30;;;13.50;65.80;;;;;;4972197;28;20688;-72
2023/06/07 02:50:06;;;;;;;12.48;4.85;;;13.50;66.00;;;;;;4972075;28;20761;-72
2023/06/07 02:52:34;;;;;;;10.43;4.07;;;13.50;65.90;;;;;;4988567;28;20058;-72
2023/06/07 02:55:02;;;;;;;8.60;4.10;;;13.50;65.90;;;;;;4972216;28;20059;-72
2023/06/07 02:57:29;;;;;;;10.98;4.57;;;13.50;65.80;;;;;;4988276;28;20725;-72
2023/06/07 02:59:57;;;;;;;9.70;4.10;;;13.50;66.10;;;;;;4971858;28;20162;-72
2023/06/07 03:02:32;;;;;;;10.32;3.88;;;13.50;65.90;;;;;;4971693;28;20047;-72
2023/06/07 03:05:00;;;;;;;13.25;4.40;;;13.50;65.50;;;;;;4971820;28;20055;-72
2023/06/07 03:07:32;;;;;;;9.23;4.37;;;13.50;65.70;;;;;;4988231;28;20053;-72
2023/06/07 03:09:59;;;;;;;10.90;3.92;;;13.50;66.00;;;;;;4971672;28;20689;-72
2023/06/07 03:12:26;;;;;;;9.38;4.45;;;13.50;65.70;;;;;;4988015;28;20506;-72
2023/06/07 03:14:57;;;;;;;14.23;4.25;;;13.50;65.90;;;;;;4971505;28;20465;-72
2023/06/07 03:17:24;;;;;;;9.70;4.47;;;13.50;65.90;;;;;;4971189;28;20105;-72
2023/06/07 03:19:56;;;;;;;11.77;4.60;;;13.50;66.00;;;;;;4972014;28;20054;-72
2023/06/07 03:22:25;;;;;;;10.88;4.22;;;13.50;66.30;;;;;;4971514;28;20306;-72
2023/06/07 03:24:54;;;;;;;13.00;4.28;;;13.50;66.50;;;;;;4988006;28;20059;-72
2023/06/07 03:27:23;;;;;;;9.55;3.90;;;13.50;66.40;;;;;;4987827;28;20082;-72
2023/06/07 03:29:53;;;;;;;11.30;4.30;;;13.50;66.20;;;;;;4971818;28;20055;-72
2023/06/07 03:32:22;;;;;;;15.03;4.70;;;13.50;66.40;;;;;;4988206;28;20082;-72
2023/06/07 03:34:51;;;;;;;11.68;4.47;;;13.40;66.50;;;;;;4971793;28;20330;-72
2023/06/07 03:37:18;;;;;;;11.02;4.38;;;13.40;66.80;;;;;;4971514;28;20057;-72
2023/06/07 03:39:45;;;;;;;13.40;3.85;;;13.40;66.90;;;;;;4988081;28;20147;-72
2023/06/07 03:42:14;;;;;;;10.93;4.15;;;13.40;67.20;;;;;;4971627;28;20054;-72
2023/06/07 03:44:42;;;;;;;11.43;3.87;;;13.40;67.20;;;;;;4988336;28;20055;-72
2023/06/07 03:47:10;;;;;;;9.90;4.25;;;13.40;67.10;;;;;;4971777;28;20255;-72
2023/06/07 03:49:37;;;;;;;12.65;3.90;;;13.40;67.10;;;;;;4988954;28;20046;-72
2023/06/07 03:52:07;;;;;;;11.48;4.20;;;13.30;67.10;;;;;;4971194;28;20055;-72
2023/06/07 03:54:34;;;;;;;8.30;3.35;;;13.40;67.50;;;;;;4987664;28;20584;-72
2023/06/07 03:57:03;;;;;;;9.17;3.67;;;13.30;67.30;;;;;;4987578;28;20473;-72
2023/06/07 03:59:33;;;;;;;10.77;4.15;;;13.30;66.90;;;;;;4988185;28;20754;-73
2023/06/07 04:02:01;;;;;;;10.60;3.63;;;13.30;67.20;;;;;;4971336;28;20046;-73
2023/06/07 04:04:29;;;;;;;9.90;3.97;;;13.30;67.50;;;;;;4971763;28;20113;-72
2023/06/07 04:06:58;;;;;;;11.50;3.70;;;13.30;67.60;;;;;;4971529;28;20046;-72
2023/06/07 04:09:25;;;;;;;8.83;3.50;;;13.30;67.70;;;;;;4971178;28;20051;-72
2023/06/07 04:11:52;;;;;;;8.93;3.40;;;13.30;67.50;;;;;;4971073;28;20610;-72
2023/06/07 04:14:20;;;;;;;11.38;3.70;;;13.30;67.90;;;;;;4971244;28;20121;-72
2023/06/07 04:16:48;;;;;;;13.30;3.72;;;13.30;68.10;;;;;;4970959;28;20047;-72
2023/06/07 04:19:16;;;;;;;10.15;3.67;;;13.30;68.00;;;;;;4971081;28;20110;-72
2023/06/07 04:21:45;;;;;;;9.57;3.43;;;13.30;68.20;;;;;;4970684;28;20039;-72
2023/06/07 04:24:12;;;;;;;10.13;3.42;;;13.30;68.30;;;;;;4987337;28;21154;-72
2023/06/07 04:26:40;;;;;;;10.45;3.50;;;13.30;68.20;;;;;;5000634;28;20055;-72
2023/06/07 04:29:08;;;;;;;11.75;3.47;;;13.30;68.20;;;;;;4984939;28;20046;-72
2023/06/07 04:31:39;;;;;;;10.65;3.92;;;13.30;68.50;;;;;;4972591;28;20047;-72
2023/06/07 04:34:09;;;;;;;9.90;3.13;;;13.30;68.30;;;;;;4978760;28;20051;-72
2023/06/07 04:36:38;;;;;;;10.48;3.58;;;13.30;68.10;;;;;;4987037;28;20257;-72
2023/06/07 04:39:10;;;;;;;11.07;3.10;;;13.30;68.10;;;;;;4987503;28;20125;-73
2023/06/07 04:41:40;;;;;;;11.60;3.33;;;13.30;68.40;;;;;;4986811;28;20054;-72
2023/06/07 04:44:08;;;;;;;10.60;3.72;;;13.30;68.40;;;;;;4986992;28;20058;-72
2023/06/07 04:46:40;;;;;;;12.93;3.90;;;13.30;68.20;;;;;;4971386;28;20627;-73
2023/06/07 04:49:17;;;;;;;12.07;3.42;;;13.30;68.50;;;;;;4986645;28;20267;-72
2023/06/07 04:51:48;;;;;;;10.52;3.35;;;13.30;69.20;;;;;;4986612;28;20055;-72
2023/06/07 04:54:17;;;;;;;9.13;3.08;;;13.30;69.20;;;;;;4970128;28;20560;-73
2023/06/07 04:56:48;;;;;;;7.97;2.85;;;13.30;68.50;;;;;;4965002;28;20133;-73
2023/06/07 04:59:18;;;;;;;11.00;3.30;;;13.30;68.80;;;;;;4968780;28;20058;-72
2023/06/07 05:01:45;;;;;;;9.48;3.15;;;13.30;68.80;;;;;;4977269;28;20378;-73
2023/06/07 05:04:16;;;;;;;11.88;3.47;;;13.30;69.00;;;;;;4982742;28;20051;-73
2023/06/07 05:06:49;;;;;;;12.85;3.13;;;13.30;69.00;;;;;;4983876;28;20054;-73
2023/06/07 05:09:17;;;;;;;11.45;3.00;;;13.30;69.10;;;;;;4959423;28;20137;-73
2023/06/07 05:11:44;;;;;;;8.50;2.67;;;13.40;69.50;;;;;;4982536;28;20093;-73
2023/06/07 05:14:11;;;;;;;9.38;3.00;;;13.40;69.70;;;;;;4962666;28;20275;-73
2023/06/07 05:16:43;;;;;;;9.68;3.13;;;13.40;70.00;;;;;;4968414;28;20078;-73
2023/06/07 05:19:11;;;;;;;14.13;3.35;;;13.40;70.40;;;;;;4969326;28;20047;-73
2023/06/07 05:21:44;;;;;;;11.75;3.15;;;13.50;70.00;;;;;;4984089;28;20055;-73
2023/06/07 05:24:12;;;;;;;9.53;3.30;;;13.50;70.90;;;;;;4984313;28;20092;-73
2023/06/07 05:26:39;;;;;;;11.35;3.60;;;13.50;70.80;;;;;;4965145;28;20259;-73
2023/06/07 05:29:07;;;;;;;10.52;2.88;;;13.50;70.90;;;;;;4985618;28;20468;-73
2023/06/07 05:31:35;;;;;;;11.30;3.10;;;13.50;70.70;;;;;;4985602;28;20051;-73
2023/06/07 05:34:02;;;;;;;11.98;3.42;;;13.50;70.70;;;;;;4985937;28;20059;-73
2023/06/07 05:36:34;;;;;;;8.63;2.93;;;13.50;70.30;;;;;;4969995;28;20051;-73
2023/06/07 05:39:04;;;;;;;11.60;3.05;;;13.50;70.80;;;;;;4969308;28;20569;-73
2023/06/07 05:41:31;;;;;;;13.13;3.08;;;13.60;71.40;;;;;;4988371;28;20075;-73
2023/06/07 05:43:58;;;;;;;10.50;2.72;;;13.60;71.10;;;;;;4973268;28;20043;-73
2023/06/07 05:46:26;;;;;;;13.55;3.17;;;13.60;70.80;;;;;;4972832;28;20826;-73
2023/06/07 05:48:53;;;;;;;9.30;3.57;;;13.60;70.60;;;;;;4988420;28;20055;-73
2023/06/07 05:51:24;;;;;;;10.13;2.97;;;13.70;70.80;;;;;;4972612;28;20271;-73
2023/06/07 05:53:52;;;;;;;9.93;3.22;;;13.70;71.20;;;;;;4990378;28;20071;-73
2023/06/07 05:56:21;;;;;;;11.07;2.92;;;13.70;71.10;;;;;;4990075;28;20082;-73
2023/06/07 05:58:50;;;;;;;10.65;2.83;;;13.70;71.20;;;;;;4990453;28;20058;-73
2023/06/07 06:01:17;;;;;;;10.40;2.53;;;13.70;71.10;;;;;;4988027;28;20230;-73
2023/06/07 06:03:44;;;;;;;11.80;3.15;;;13.70;70.70;;;;;;4989256;28;20744;-73
2023/06/07 06:06:16;;;;;;;11.40;3.13;;;13.80;70.90;;;;;;4972019;28;20055;-73
2023/06/07 06:08:43;;;;;;;13.15;2.97;;;13.80;70.70;;;;;;4987800;28;20043;-73
2023/06/07 06:11:11;;;;;;;10.27;2.55;;;13.90;70.40;;;;;;4984058;28;20046;-73
2023/06/07 06:13:40;;;;;;;9.83;2.87;;;13.90;70.40;;;;;;4987745;28;20053;-73
2023/06/07 06:16:08;;;;;;;12.82;3.35;;;13.90;70.40;;;;;;4989874;28;20259;-73
2023/06/07 06:18:35;;;;;;;11.38;3.10;;;13.90;70.40;;;;;;4986578;28;20065;-73
2023/06/07 06:21:03;;;;;;;11.05;2.80;;;13.90;70.70;;;;;;4987757;28;20059;-73
2023/06/07 06:23:30;;;;;;;13.05;3.38;;;13.90;70.40;;;;;;4981799;28;20589;-73
2023/06/07 06:25:57;;;;;;;11.10;2.87;;;13.90;70.40;;;;;;4967502;28;20127;-73
2023/06/07 06:28:24;;;;;;;12.25;2.83;;;14.00;70.40;;;;;;4982754;28;20287;-73
2023/06/07 06:30:53;;;;;;;10.25;2.58;;;14.00;70.60;;;;;;4981291;28;20107;-73
2023/06/07 06:33:20;;;;;;;7.55;2.75;;;14.00;70.70;;;;;;5005124;28;20101;-73
2023/06/07 06:35:47;;;;;;;9.90;2.60;;;14.00;70.60;;;;;;4975686;28;20053;-73
2023/06/07 06:38:15;;;;;;;12.93;2.90;;;14.00;70.30;;;;;;4989416;28;20061;-73
2023/06/07 06:40:42;;;;;;;6.82;2.70;;;14.10;70.70;;;;;;4988863;28;20270;-73
2023/06/07 06:43:09;;;;;;;9.65;2.55;;;14.10;70.80;;;;;;4977574;28;20065;-73
2023/06/07 06:45:44;;;;;;;8.73;2.65;;;14.10;70.70;;;;;;4988011;28;20054;-73
2023/06/07 06:48:13;;;;;;;11.98;2.80;;;14.20;70.10;;;;;;5004278;28;20537;-73
2023/06/07 06:50:40;;;;;;;9.27;3.00;;;14.20;70.10;;;;;;4985918;28;20051;-73
2023/06/07 06:53:07;;;;;;;11.55;2.85;;;14.20;69.40;;;;;;5004046;28;20247;-73
2023/06/07 06:55:35;;;;;;;9.63;2.78;;;14.30;69.70;;;;;;4985362;28;20586;-74
2023/06/07 06:58:02;;;;;;;11.55;2.58;;;14.30;69.60;;;;;;4987359;28;20589;-75
2023/06/07 07:00:31;;;;;;;8.98;2.63;;;14.30;69.60;;;;;;4988197;28;20050;-73
2023/06/07 07:02:58;;;;;;;8.97;2.87;;;14.30;69.40;;;;;;4987209;28;20842;-74
2023/06/07 07:05:27;;;;;;;8.43;2.58;;;14.40;69.80;;;;;;4984070;28;20872;-75
2023/06/07 07:07:54;;;;;;;11.15;3.20;;;14.40;69.60;;;;;;4988770;28;20050;-75
2023/06/07 07:10:21;;;;;;;9.48;2.55;;;14.40;69.60;;;;;;4988425;28;20589;-74
2023/06/07 07:12:48;;;;;;;8.77;2.95;;;14.50;69.40;;;;;;4987098;28;20791;-74
2023/06/07 07:15:15;;;;;;;12.37;3.23;;;14.50;69.30;;;;;;4985887;28;20046;-75
2023/06/07 07:17:46;;;;;;;9.85;3.15;;;14.50;69.00;;;;;;4987334;28;20283;-75
2023/06/07 07:20:13;;;;;;;10.85;3.10;;;14.60;69.20;;;;;;4987090;28;20090;-75
2023/06/07 07:22:43;;;;;;;9.85;2.55;;;14.60;69.30;;;;;;4984637;28;20054;-75
2023/06/07 07:25:11;;;;;;;7.35;3.00;;;14.60;69.50;;;;;;4987869;28;20101;-75
2023/06/07 07:27:38;;;;;;;11.50;2.90;;;14.60;69.30;;;;;;4987899;28;20150;-75
2023/06/07 07:30:07;;;;;;;7.72;2.90;;;14.70;69.10;;;;;;4998676;28;20331;-74
2023/06/07 07:32:34;;;;;;;11.40;3.10;;;14.70;69.00;;;;;;4981934;28;20061;-73
2023/06/07 07:35:01;;;;;;;11.00;2.85;;;14.70;68.90;;;;;;4978804;28;21080;-75
2023/06/07 07:37:28;;;;;;;8.45;2.63;;;14.70;69.20;;;;;;4985667;28;20063;-75
2023/06/07 07:39:56;;;;;;;13.73;3.23;;;14.80;69.30;;;;;;4984685;28;20172;-75
2023/06/07 07:42:24;;;;;;;9.70;2.67;;;14.80;69.60;;;;;;4982488;28;20326;-75
2023/06/07 07:44:51;;;;;;;11.48;3.22;;;14.80;69.70;;;;;;5009722;23;20090;-75
2023/06/07 07:47:17;;;;;;;7.45;2.65;;;14.80;69.40;;;;;;4967480;28;20075;-75
2023/06/07 07:49:46;;;;;;;11.48;2.92;;;14.90;69.50;;;;;;4964628;28;20058;-75
2023/06/07 07:52:13;;;;;;;11.27;2.83;;;14.90;69.90;;;;;;4966991;28;20047;-75
2023/06/07 07:54:40;;;;;;;7.65;2.63;;;14.90;69.40;;;;;;4963575;28;20809;-75
2023/06/07 07:57:08;;;;;;;8.05;2.30;;;14.90;69.20;;;;;;4967793;28;20046;-75
2023/06/07 07:59:35;;;;;;;8.77;2.40;;;15.00;69.00;;;;;;4963688;28;20130;-75
2023/06/07 08:02:03;;;;;;;8.95;2.58;;;15.00;68.70;;;;;;4965356;28;20502;-74
2023/06/07 08:04:30;;;;;;;9.17;2.80;;;15.00;68.80;;;;;;4967811;28;20047;-75
2023/06/07 08:06:57;;;;;;;8.75;2.42;;;15.10;68.90;;;;;;4961398;28;20256;-76
2023/06/07 08:09:24;;;;;;;7.82;2.78;;;15.20;68.80;;;;;;4964116;28;20517;-76
2023/06/07 08:11:51;;;;;;;7.03;2.50;;;15.20;69.00;;;;;;4969693;28;20126;-75
2023/06/07 08:14:20;;;;;;;8.00;2.72;;;15.20;69.40;;;;;;4972338;28;20059;-75
2023/06/07 08:16:48;;;;;;;9.97;2.63;;;15.30;69.20;;;;;;4998707;28;20058;-75
2023/06/07 08:19:14;;;;;;;8.48;2.70;;;15.30;69.00;;;;;;4966842;28;20283;-75
2023/06/07 08:21:43;;;;;;;10.55;2.80;;;15.40;68.90;;;;;;4999001;28;20051;-75
2023/06/07 08:24:11;;;;;;;11.05;2.88;;;15.40;68.70;;;;;;4963970;28;20119;-76
2023/06/07 08:26:37;;;;;;;10.10;2.78;;;15.40;68.50;;;;;;4963677;28;20122;-74
2023/06/07 08:29:05;;;;;;;12.97;3.17;;;15.50;68.30;;;;;;4964365;28;20047;-75
2023/06/07 08:31:33;;;;;;;10.85;2.58;;;15.60;68.20;;;;;;4948392;28;20251;-74
2023/06/07 08:34:00;;;;;;;9.63;2.92;;;15.60;68.00;;;;;;4963981;28;20062;-75
2023/06/07 08:36:27;;;;;;;10.57;3.03;;;15.60;67.90;;;;;;4967483;28;20062;-75
2023/06/07 08:38:54;;;;;;;10.10;2.35;;;15.70;68.10;;;;;;4999074;28;20058;-75
2023/06/07 08:41:21;;;;;;;9.13;2.60;;;15.70;68.00;;;;;;4963942;28;20562;-75
2023/06/07 08:43:49;;;;;;;9.25;2.95;;;15.80;68.10;;;;;;4967759;28;20267;-75
2023/06/07 08:46:17;;;;;;;11.02;3.00;;;15.80;68.20;;;;;;4964483;28;20342;-75
2023/06/07 08:48:49;;;;;;;10.80;3.10;;;15.80;68.00;;;;;;4975092;28;20058;-75
2023/06/07 08:51:18;;;;;;;8.43;2.85;;;16.00;68.00;;;;;;4958392;28;20071;-75
2023/06/07 08:53:49;;;;;;;6.07;2.50;;;16.00;67.80;;;;;;4959707;28;20051;-74
2023/06/07 08:56:17;;;;;;;15.82;3.45;;;16.00;67.70;;;;;;4995494;28;20628;-75
2023/06/07 08:58:45;;;;;;;13.30;3.42;;;16.10;67.70;;;;;;4961706;28;20196;-75
2023/06/07 09:01:12;;;;;;;9.98;3.65;;;16.10;67.50;;;;;;4961291;28;20051;-74
2023/06/07 09:03:40;;;;;;;11.82;3.15;;;16.20;67.70;;;;;;4970169;28;20551;-75
2023/06/07 09:06:08;;;;;;;9.07;3.10;;;16.20;67.50;;;;;;4966836;28;20062;-75
2023/06/07 09:08:35;;;;;;;10.20;3.50;;;16.30;67.10;;;;;;4968500;28;20350;-75
2023/06/07 09:11:02;;;;;;;8.90;3.15;;;16.40;67.30;;;;;;4961365;28;20067;-75
2023/06/07 09:13:30;;;;;;;11.75;3.60;;;16.40;67.30;;;;;;4970905;28;20515;-75
2023/06/07 09:15:59;;;;;;;11.07;3.60;;;16.50;67.10;;;;;;4968435;28;20063;-75
2023/06/07 09:18:41;;;;;;;9.67;3.23;;;16.50;67.10;;;;;;4970223;28;20584;-75
2023/06/07 09:21:19;;;;;;;10.82;3.45;;;16.60;67.20;;;;;;4970068;28;20275;-75
2023/06/07 09:23:46;;;;;;;8.93;3.25;;;16.60;67.10;;;;;;4973579;28;20145;-75
2023/06/07 09:26:14;;;;;;;7.07;3.15;;;16.70;67.30;;;;;;4974551;28;20098;-76
2023/06/07 09:28:41;;;;;;;7.18;2.83;;;16.80;66.60;;;;;;4971411;28;20055;-76
2023/06/07 09:31:08;;;;;;;9.30;3.43;;;16.80;66.70;;;;;;4999432;28;20051;-75
2023/06/07 09:33:36;;;;;;;6.82;2.90;;;16.90;66.60;;;;;;4952255;28;20283;-76
2023/06/07 09:36:05;;;;;;;9.98;3.22;;;17.00;66.20;;;;;;4948403;28;20048;-76
2023/06/07 09:38:33;;;;;;;9.80;3.20;;;17.00;66.10;;;;;;4969183;28;20653;-76
2023/06/07 09:41:02;;;;;;;8.88;3.60;;;17.00;65.80;;;;;;4974051;28;20047;-76
2023/06/07 09:43:42;;;;;;;7.90;3.00;;;17.10;66.00;;;;;;4942368;28;20060;-76
2023/06/07 09:46:09;;;;;;;6.20;2.47;;;17.20;66.10;;;;;;4970276;28;20259;-76
2023/06/07 09:48:50;;;;;;;9.23;3.00;;;17.20;66.00;;;;;;5003062;28;20051;-76
2023/06/07 09:51:19;;;;;;;8.07;3.00;;;17.30;65.90;;;;;;4978583;28;20106;-76
2023/06/07 09:53:53;;;;;;;8.77;3.10;;;17.40;65.70;;;;;;4978522;28;20051;-76
2023/06/07 09:56:21;;;;;;;8.00;3.40;;;17.40;65.10;;;;;;4997538;28;20054;-76
2023/06/07 09:58:50;;;;;;;9.30;3.17;;;17.50;64.90;;;;;;4982924;28;20276;-76
2023/06/07 10:01:33;;;;;;;8.85;3.67;;;17.50;65.00;;;;;;4960906;28;20058;-76
2023/06/07 10:04:02;;;;;;;10.80;3.58;;;17.60;64.90;;;;;;4969118;28;20103;-76
2023/06/07 10:06:32;;;;;;;8.73;3.72;;;17.70;64.80;;;;;;4968806;28;20051;-74
2023/06/07 10:09:05;;;;;;;8.40;3.60;;;17.80;64.20;;;;;;4973264;28;20582;-75
2023/06/07 10:11:34;;;;;;;10.40;3.53;;;17.80;64.40;;;;;;5000085;28;20255;-76
2023/06/07 10:14:06;;;;;;;8.13;3.05;;;17.90;64.60;;;;;;4969014;28;20051;-80
2023/06/07 10:16:38;;;;;;;8.35;3.65;;;18.00;64.00;;;;;;4982198;28;20187;-80
2023/06/07 10:19:11;;;;;;;7.53;3.20;;;18.00;64.20;;;;;;4944508;28;20524;-80
2023/06/07 10:21:44;;;;;;;7.67;3.50;;;18.10;64.40;;;;;;4976968;28;20051;-80
2023/06/07 10:24:18;;;;;;;9.27;3.60;;;18.20;63.90;;;;;;4959594;28;20755;-80
2023/06/07 10:26:53;;;;;;;7.80;3.40;;;18.30;63.30;;;;;;4962542;28;20126;-80
2023/06/07 10:29:29;;;;;;;9.27;3.95;;;18.30;63.60;;;;;;4984391;28;20516;-80
2023/06/07 10:32:03;;;;;;;9.77;3.40;;;18.40;63.70;;;;;;4965374;28;20126;-81
2023/06/07 10:34:32;;;;;;;8.33;3.67;;;18.50;63.70;;;;;;4963352;28;20985;-81
2023/06/07 10:37:01;;;;;;;11.18;3.60;;;18.60;63.50;;;;;;4950804;28;20260;-81
2023/06/07 10:39:29;;;;;;;9.38;3.58;;;18.70;62.90;;;;;;4958452;28;20596;-81
2023/06/07 10:41:57;;;;;;;9.18;3.42;;;18.80;62.30;;;;;;4969084;28;20127;-80
2023/06/07 10:44:25;;;;;;;8.80;3.53;;;18.90;62.30;;;;;;4969387;28;20051;-80
2023/06/07 10:47:24;;;;;;;10.50;3.77;;;19.00;62.40;;;;;;4968658;28;20054;-79
2023/06/07 10:49:52;;;;;;;7.85;3.50;;;19.10;62.70;;;;;;4958689;28;20288;-80
2023/06/07 10:52:19;;;;;;;16.42;4.00;;;19.20;62.20;;;;;;4987829;28;20059;-79
2023/06/07 10:54:48;;;;;;;7.53;3.38;;;19.30;61.80;;;;;;4988926;28;20191;-79
2023/06/07 10:57:32;;;;;;;8.75;3.58;;;19.30;61.60;;;;;;4987610;28;20612;-79
2023/06/07 11:00:28;;;;;;;24.43;5.00;;;19.40;61.90;;;;;;4987483;28;20057;-79
2023/06/07 11:03:35;;;;;;;10.68;3.40;;;19.50;61.60;;;;;;4960090;28;20264;-79
2023/06/07 11:06:09;;;;;;;10.50;3.80;;;19.50;61.50;;;;;;4959530;28;20054;-79
2023/06/07 11:08:40;;;;;;;25.38;4.80;;;19.70;61.10;;;;;;4963949;28;20058;-80
2023/06/07 11:11:45;;;;;;;9.50;3.97;;;19.70;60.90;;;;;;4969239;28;20055;-80
2023/06/07 11:14:15;;;;;;;10.40;3.50;;;19.90;60.80;;;;;;4911771;28;20063;-80
2023/06/07 11:16:42;;;;;;;9.52;3.55;;;20.00;60.70;;;;;;4964532;28;20248;-81
2023/06/07 11:19:13;;;;;;;8.70;3.35;;;20.00;60.50;;;;;;4966480;28;20285;-80
2023/06/07 11:22:05;;;;;;;8.48;3.50;;;20.10;60.20;;;;;;4964032;28;20057;-80
2023/06/07 11:24:34;;;;;;;9.88;3.70;;;20.20;59.50;;;;;;4965915;28;20059;-81
2023/06/07 11:27:02;;;;;;;8.57;3.20;;;20.30;59.80;;;;;;4964879;28;20055;-80
2023/06/07 11:29:30;;;;;;;7.00;3.78;;;20.30;58.70;;;;;;4997035;28;20258;-80
2023/06/07 11:31:59;;;;;;;9.80;3.70;;;20.40;59.10;;;;;;4964198;28;20059;-81
2023/06/07 11:34:27;;;;;;;8.55;3.38;;;20.40;59.30;;;;;;4998589;28;20098;-80
2023/06/07 11:37:14;;;;;;;10.65;3.45;;;20.50;59.10;;;;;;4965871;28;20149;-80
2023/06/07 11:39:41;;;;;;;10.40;3.80;;;20.50;58.80;;;;;;4966743;28;20147;-80
2023/06/07 11:42:09;;;;;;;7.72;3.35;;;20.60;58.60;;;;;;4968485;28;20278;-80
2023/06/07 11:44:37;;;;;;;8.73;3.22;;;20.70;58.90;;;;;;4963420;28;20055;-80
2023/06/07 11:47:06;;;;;;;7.53;3.45;;;20.70;58.80;;;;;;4999939;28;20498;-80
2023/06/07 11:49:40;;;;;;;7.40;3.25;;;20.80;59.20;;;;;;4968647;28;20044;-80
2023/06/07 11:52:08;;;;;;;8.50;3.57;;;20.90;58.80;;;;;;4968201;28;20139;-81
2023/06/07 11:54:41;;;;;;;8.07;3.17;;;21.00;58.90;;;;;;4962572;28;20259;-81
2023/06/07 11:57:10;;;;;;;7.40;3.20;;;21.00;58.80;;;;;;4970209;28;20085;-80
2023/06/07 11:59:38;;;;;;;7.07;3.03;;;21.10;58.60;;;;;;4963658;28;20043;-80
2023/06/07 12:02:06;;;;;;;7.60;3.03;;;21.10;58.70;;;;;;4964694;28;20055;-81
2023/06/07 12:04:33;;;;;;;7.83;3.23;;;21.30;58.90;;;;;;4966405;28;20048;-81
2023/06/07 12:07:18;;;;;;;10.27;3.65;;;21.30;58.40;;;;;;4968015;28;20294;-81
2023/06/07 12:09:49;;;;;;;7.93;3.00;;;21.40;58.50;;;;;;4975233;28;20134;-80
2023/06/07 12:12:17;;;;;;;10.05;3.67;;;21.50;58.40;;;;;;4951706;28;20054;-80
2023/06/07 12:14:46;;;;;;;7.22;3.33;;;21.50;58.40;;;;;;5000035;28;20508;-79
2023/06/07 12:17:14;;;;;;;8.13;3.60;;;21.70;58.20;;;;;;4968946;28;20063;-80
2023/06/07 12:19:41;;;;;;;7.95;3.00;;;21.70;57.50;;;;;;4948607;28;20283;-81
2023/06/07 12:22:09;;;;;;;10.27;3.45;;;21.80;57.40;;;;;;4956446;28;20059;-81
2023/06/07 12:24:39;;;;;;;6.55;3.35;;;21.90;57.80;;;;;;4974735;28;20082;-80
2023/06/07 12:27:11;;;;;;;8.60;3.28;;;21.90;56.90;;;;;;4964674;28;20051;-81
2023/06/07 12:29:41;;;;;;;8.47;3.30;;;22.00;57.00;;;;;;4966136;28;20954;-81
2023/06/07 12:32:10;;;;;;;8.38;3.47;;;22.10;56.80;;;;;;4965589;28;20291;-81
2023/06/07 12:34:43;;;;;;;8.25;3.47;;;22.20;56.00;;;;;;4959475;28;20047;-80
2023/06/07 12:37:10;;;;;;;10.57;3.90;;;22.30;56.50;;;;;;4965208;28;20063;-81
2023/06/07 12:39:37;;;;;;;8.32;3.20;;;22.40;56.70;;;;;;4962991;28;20043;-80
2023/06/07 12:42:06;;;;;;;7.93;3.70;;;22.50;56.40;;;;;;4961565;28;20150;-80
2023/06/07 12:44:33;;;;;;;10.90;3.70;;;22.50;56.20;;;;;;4955597;28;20263;-81
2023/06/07 12:47:02;;;;;;;8.07;3.33;;;22.60;56.00;;;;;;4964433;28;20131;-82
2023/06/07 12:49:29;;;;;;;8.95;3.40;;;22.70;56.10;;;;;;4999907;28;20134;-82
2023/06/07 12:51:56;;;;;;;8.02;3.30;;;22.80;55.40;;;;;;4958134;28;20055;-83
2023/06/07 12:54:23;;;;;;;8.30;3.53;;;22.80;55.00;;;;;;4966453;28;20057;-80